createdAt,value
2023-04-09T00:00:30.836Z,41.60
2023-04-09T00:02:58.785Z,42.07
2023-04-09T00:05:26.656Z,41.20
2023-04-09T00:07:54.568Z,41.70
2023-04-09T00:10:22.579Z,39.07
2023-04-09T00:12:50.472Z,41.13
2023-04-09T00:15:29.822Z,39.57
2023-04-09T00:17:59.319Z,37.23
2023-04-09T00:20:27.267Z,37.93
2023-04-09T00:22:56.288Z,36.43
2023-04-09T00:25:24.176Z,36.53
2023-04-09T00:27:52.062Z,39.93
2023-04-09T00:30:21.449Z,36.77
2023-04-09T00:32:49.263Z,39.27
2023-04-09T00:35:17.536Z,36.10
2023-04-09T00:37:45.291Z,38.47
2023-04-09T00:40:13.361Z,39.57
2023-04-09T00:42:41.681Z,37.33
2023-04-09T00:45:10.594Z,37.37
2023-04-09T00:47:39.754Z,35.63
2023-04-09T00:50:08.371Z,37.27
2023-04-09T00:52:36.173Z,37.33
2023-04-09T00:55:05.977Z,40.23
2023-04-09T00:57:33.852Z,37.13
2023-04-09T01:00:01.839Z,39.57
2023-04-09T01:02:30.979Z,38.53
2023-04-09T01:05:01.163Z,37.43
2023-04-09T01:07:38.908Z,37.47
2023-04-09T01:10:15.569Z,39.33
2023-04-09T01:12:53.249Z,39.53
2023-04-09T01:15:26.491Z,37.80
2023-04-09T01:18:00.363Z,33.47
2023-04-09T01:20:35.242Z,30.23
2023-04-09T01:23:15.575Z,30.87
2023-04-09T01:25:50.567Z,26.00
2023-04-09T01:28:22.341Z,26.00
2023-04-09T01:30:52.863Z,25.13
2023-04-09T01:33:22.202Z,21.57
2023-04-09T01:35:51.454Z,24.00
2023-04-09T01:38:21.449Z,22.37
2023-04-09T01:40:50.709Z,21.13
2023-04-09T01:43:21.142Z,21.07
2023-04-09T01:45:49.682Z,21.20
2023-04-09T01:48:18.109Z,22.07
2023-04-09T01:50:46.421Z,22.73
2023-04-09T01:53:14.786Z,21.80
2023-04-09T01:55:42.553Z,21.43
2023-04-09T01:58:10.293Z,22.30
2023-04-09T02:00:41.450Z,21.77
2023-04-09T02:03:17.419Z,22.77
2023-04-09T02:05:51.262Z,21.37
2023-04-09T02:08:22.878Z,21.37
2023-04-09T02:10:55.686Z,22.70
2023-04-09T02:13:25.814Z,22.17
2023-04-09T02:15:56.463Z,21.50
2023-04-09T02:18:25.127Z,20.87
2023-04-09T02:20:53.959Z,22.17
2023-04-09T02:23:21.993Z,23.60
2023-04-09T02:25:50.492Z,20.83
2023-04-09T02:28:18.184Z,21.93
2023-04-09T02:30:46.083Z,22.90
2023-04-09T02:33:15.331Z,21.77
2023-04-09T02:35:43.200Z,25.97
2023-04-09T02:38:13.719Z,24.60
2023-04-09T02:40:42.118Z,24.70
2023-04-09T02:43:10.125Z,24.23
2023-04-09T02:45:38.007Z,22.97
2023-04-09T02:48:06.405Z,22.77
2023-04-09T02:50:35.507Z,21.93
2023-04-09T02:53:03.287Z,19.77
2023-04-09T02:55:31.184Z,19.80
2023-04-09T02:57:58.878Z,20.03
2023-04-09T03:00:26.616Z,20.67
2023-04-09T03:02:54.464Z,21.57
2023-04-09T03:05:22.306Z,21.70
2023-04-09T03:07:51.682Z,22.43
2023-04-09T03:10:19.462Z,23.60
2023-04-09T03:12:47.940Z,24.70
2023-04-09T03:15:15.780Z,23.73
2023-04-09T03:17:43.577Z,21.57
2023-04-09T03:20:11.727Z,21.63
2023-04-09T03:22:40.244Z,25.20
2023-04-09T03:25:10.415Z,22.20
2023-04-09T03:27:38.132Z,23.13
2023-04-09T03:30:06.648Z,23.93
2023-04-09T03:32:34.404Z,22.77
2023-04-09T03:35:02.153Z,24.17
2023-04-09T03:37:29.965Z,23.50
2023-04-09T03:39:57.681Z,21.57
2023-04-09T03:42:26.743Z,22.67
2023-04-09T03:44:54.834Z,20.17
2023-04-09T03:47:22.625Z,20.80
2023-04-09T03:49:50.357Z,21.63
2023-04-09T03:52:18.176Z,21.47
2023-04-09T03:54:46.460Z,21.77
2023-04-09T03:57:14.248Z,22.77
2023-04-09T03:59:43.309Z,24.50
2023-04-09T04:02:11.109Z,25.00
2023-04-09T04:04:38.890Z,26.23
2023-04-09T04:07:07.748Z,25.00
2023-04-09T04:09:35.584Z,25.53
2023-04-09T04:12:03.392Z,25.73
2023-04-09T04:14:31.135Z,26.80
2023-04-09T04:17:00.192Z,26.07
2023-04-09T04:19:27.922Z,27.60
2023-04-09T04:21:55.678Z,27.83
2023-04-09T04:24:23.509Z,30.77
2023-04-09T04:26:51.252Z,29.43
2023-04-09T04:29:19.211Z,26.77
2023-04-09T04:31:47.069Z,26.77
2023-04-09T04:34:16.132Z,27.97
2023-04-09T04:36:43.880Z,26.50
2023-04-09T04:39:11.587Z,27.60
2023-04-09T04:41:39.334Z,25.80
2023-04-09T04:44:07.053Z,26.47
2023-04-09T04:46:34.904Z,25.03
2023-04-09T04:49:03.041Z,25.07
2023-04-09T04:51:33.244Z,24.80
2023-04-09T04:54:00.989Z,25.40
2023-04-09T04:56:28.736Z,25.00
2023-04-09T04:58:56.430Z,27.10
2023-04-09T05:01:24.265Z,27.03
2023-04-09T05:03:52.226Z,24.53
2023-04-09T05:06:20.111Z,27.10
2023-04-09T05:08:49.132Z,26.37
2023-04-09T05:11:16.967Z,27.20
2023-04-09T05:13:44.691Z,25.77
2023-04-09T05:16:17.537Z,26.87
2023-04-09T05:18:45.372Z,24.87
2023-04-09T05:21:13.116Z,24.03
2023-04-09T05:23:41.049Z,25.40
2023-04-09T05:26:10.679Z,24.60
2023-04-09T05:28:38.483Z,26.80
2023-04-09T05:31:11.174Z,25.53
2023-04-09T05:33:39.070Z,25.57
2023-04-09T05:36:07.975Z,25.27
2023-04-09T05:38:36.534Z,27.13
2023-04-09T05:41:04.313Z,26.53
2023-04-09T05:43:33.382Z,27.40
2023-04-09T05:46:01.431Z,28.30
2023-04-09T05:48:29.226Z,27.27
2023-04-09T05:50:58.499Z,28.77
2023-04-09T05:53:27.542Z,28.90
2023-04-09T05:55:55.543Z,29.37
2023-04-09T05:58:23.258Z,29.10
2023-04-09T06:00:52.625Z,29.00
2023-04-09T06:03:20.888Z,29.97
2023-04-09T06:05:49.178Z,29.13
2023-04-09T06:08:16.905Z,29.90
2023-04-09T06:10:44.664Z,30.30
2023-04-09T06:13:12.474Z,30.33
2023-04-09T06:15:40.582Z,32.27
2023-04-09T06:18:09.669Z,30.90
2023-04-09T06:20:37.460Z,31.27
2023-04-09T06:23:06.183Z,32.70
2023-04-09T06:25:33.963Z,29.67
2023-04-09T06:28:01.757Z,30.73
2023-04-09T06:30:31.845Z,32.53
2023-04-09T06:32:59.754Z,32.20
2023-04-09T06:35:28.970Z,32.73
2023-04-09T06:37:56.686Z,32.73
2023-04-09T06:40:24.439Z,34.30
2023-04-09T06:42:52.217Z,32.93
2023-04-09T06:45:19.972Z,33.90
2023-04-09T06:47:47.767Z,33.70
2023-04-09T06:50:15.513Z,34.57
2023-04-09T06:52:44.630Z,32.70
2023-04-09T06:55:12.447Z,32.63
2023-04-09T06:57:40.163Z,31.90
2023-04-09T07:00:09.672Z,33.67
2023-04-09T07:02:37.923Z,32.67
2023-04-09T07:05:06.504Z,32.37
2023-04-09T07:07:34.540Z,32.77
2023-04-09T07:10:03.640Z,33.23
2023-04-09T07:12:32.410Z,32.17
2023-04-09T07:15:00.273Z,31.43
2023-04-09T07:17:28.449Z,31.63
2023-04-09T07:19:56.496Z,29.80
2023-04-09T07:22:24.941Z,30.27
2023-04-09T07:24:55.059Z,28.37
2023-04-09T07:27:25.885Z,29.47
2023-04-09T07:29:55.427Z,29.63
2023-04-09T07:32:23.330Z,30.67
2023-04-09T07:34:52.581Z,28.57
2023-04-09T07:37:20.771Z,28.93
2023-04-09T07:39:48.746Z,28.60
2023-04-09T07:42:16.575Z,27.77
2023-04-09T07:44:45.649Z,28.60
2023-04-09T07:47:13.644Z,25.93
2023-04-09T07:49:41.565Z,27.23
2023-04-09T07:52:09.398Z,27.50
2023-04-09T07:54:37.149Z,27.63
2023-04-09T07:57:05.119Z,27.00
2023-04-09T07:59:32.877Z,27.40
2023-04-09T08:02:02.171Z,27.13
2023-04-09T08:04:30.789Z,28.00
2023-04-09T08:06:58.584Z,26.83
2023-04-09T08:09:26.386Z,26.93
2023-04-09T08:11:54.239Z,25.80
2023-04-09T08:14:22.150Z,27.50
2023-04-09T08:16:51.250Z,26.80
2023-04-09T08:19:20.979Z,26.80
2023-04-09T08:21:49.649Z,25.27
2023-04-09T08:24:18.304Z,24.52
2023-04-09T08:26:46.619Z,23.67
2023-04-09T08:29:16.147Z,22.15
2023-04-09T08:31:44.386Z,23.13
2023-04-09T08:34:13.042Z,23.08
2023-04-09T08:36:42.284Z,21.60
2023-04-09T08:39:10.064Z,22.75
2023-04-09T08:41:43.970Z,21.08
2023-04-09T08:44:11.950Z,21.67
2023-04-09T08:46:39.686Z,21.20
2023-04-09T08:49:10.139Z,21.52
2023-04-09T08:51:39.372Z,20.45
2023-04-09T08:54:08.666Z,19.55
2023-04-09T08:56:36.829Z,21.60
2023-04-09T08:59:05.462Z,22.13
2023-04-09T09:01:33.738Z,20.85
2023-04-09T09:04:04.333Z,19.35
2023-04-09T09:06:35.574Z,19.70
2023-04-09T09:09:05.415Z,19.70
2023-04-09T09:11:35.077Z,19.60
2023-04-09T09:14:04.453Z,19.52
2023-04-09T09:16:34.757Z,17.73
2023-04-09T09:19:03.361Z,19.58
2023-04-09T09:21:31.338Z,19.15
2023-04-09T09:23:59.208Z,18.92
2023-04-09T09:26:28.875Z,20.80
2023-04-09T09:28:59.309Z,18.38
2023-04-09T09:31:27.512Z,19.10
2023-04-09T09:33:55.653Z,20.77
2023-04-09T09:36:33.877Z,20.80
2023-04-09T09:39:10.153Z,19.45
2023-04-09T09:41:38.919Z,19.58
2023-04-09T09:44:08.699Z,19.17
2023-04-09T09:46:38.440Z,20.30
2023-04-09T09:49:06.861Z,20.85
2023-04-09T09:51:37.608Z,22.13
2023-04-09T09:54:07.940Z,19.95
2023-04-09T09:56:38.799Z,21.40
2023-04-09T09:59:16.770Z,21.73
2023-04-09T10:01:45.432Z,21.80
2023-04-09T10:04:15.833Z,21.17
2023-04-09T10:06:45.535Z,19.33
2023-04-09T10:09:14.569Z,19.10
2023-04-09T10:11:45.537Z,20.10
2023-04-09T10:14:15.416Z,19.15
2023-04-09T10:16:43.380Z,19.63
2023-04-09T10:19:14.250Z,20.30
2023-04-09T10:21:48.650Z,20.17
2023-04-09T10:24:17.986Z,19.90
2023-04-09T10:26:46.172Z,21.15
2023-04-09T10:29:17.007Z,19.88
2023-04-09T10:32:04.027Z,18.15
2023-04-09T10:34:38.118Z,20.05
2023-04-09T10:37:09.616Z,18.60
2023-04-09T10:39:42.450Z,19.13
2023-04-09T10:42:14.926Z,19.27
2023-04-09T10:44:44.541Z,18.67
2023-04-09T10:47:13.044Z,19.45
2023-04-09T10:49:42.840Z,19.58
2023-04-09T10:52:13.805Z,19.30
2023-04-09T10:54:45.599Z,18.52
2023-04-09T10:57:18.987Z,18.40
2023-04-09T10:59:50.823Z,17.17
2023-04-09T11:02:49.944Z,17.77
2023-04-09T11:05:26.428Z,18.48
2023-04-09T11:07:59.430Z,19.13
2023-04-09T11:10:28.406Z,18.05
2023-04-09T11:12:56.344Z,18.25
2023-04-09T11:15:25.570Z,18.85
2023-04-09T11:17:53.647Z,18.67
2023-04-09T11:20:23.527Z,21.77
2023-04-09T11:22:53.192Z,18.55
2023-04-09T11:25:22.513Z,20.85
2023-04-09T11:27:51.111Z,18.90
2023-04-09T11:30:19.332Z,19.02
2023-04-09T11:32:49.871Z,19.05
2023-04-09T11:35:19.350Z,19.73
2023-04-09T11:37:47.914Z,20.30
2023-04-09T11:40:21.135Z,20.95
2023-04-09T11:42:51.184Z,20.00
2023-04-09T11:45:19.802Z,18.85
2023-04-09T11:47:49.792Z,19.15
2023-04-09T11:50:17.860Z,18.55
2023-04-09T11:52:46.798Z,18.63
2023-04-09T11:55:24.684Z,19.67
2023-04-09T11:57:54.203Z,19.38
2023-04-09T12:00:24.783Z,19.10
2023-04-09T12:03:03.270Z,18.50
2023-04-09T12:05:35.346Z,17.83
2023-04-09T12:08:05.085Z,20.60
2023-04-09T12:10:34.453Z,20.15
2023-04-09T12:13:04.580Z,19.77
2023-04-09T12:15:34.211Z,20.02
2023-04-09T12:18:04.183Z,20.77
2023-04-09T12:20:34.885Z,21.42
2023-04-09T12:23:04.558Z,20.13
2023-04-09T12:25:32.938Z,19.50
2023-04-09T12:28:00.716Z,19.25
2023-04-09T12:30:28.750Z,20.45
2023-04-09T12:32:56.871Z,19.35
2023-04-09T12:35:26.225Z,20.80
2023-04-09T12:37:54.673Z,21.63
2023-04-09T12:40:23.038Z,21.00
2023-04-09T12:42:50.842Z,20.42
2023-04-09T12:45:20.285Z,21.45
2023-04-09T12:47:48.150Z,21.20
2023-04-09T12:50:16.739Z,21.42
2023-04-09T12:52:46.704Z,21.73
2023-04-09T12:55:15.568Z,20.73
2023-04-09T12:57:46.898Z,21.88
2023-04-09T13:00:15.953Z,20.48
2023-04-09T13:02:43.900Z,21.35
2023-04-09T13:05:12.072Z,19.45
2023-04-09T13:07:40.869Z,19.42
2023-04-09T13:10:12.221Z,19.02
2023-04-09T13:12:40.072Z,17.38
2023-04-09T13:15:08.558Z,19.35
2023-04-09T13:17:36.356Z,18.35
2023-04-09T13:20:04.655Z,13.93
2023-04-09T13:22:32.592Z,16.52
2023-04-09T13:25:00.562Z,17.40
2023-04-09T13:27:29.746Z,17.33
2023-04-09T13:29:57.532Z,17.38
2023-04-09T13:32:25.412Z,16.95
2023-04-09T13:34:54.180Z,15.55
2023-04-09T13:37:22.061Z,15.35
2023-04-09T13:39:50.512Z,15.50
2023-04-09T13:42:18.430Z,15.18
2023-04-09T13:44:47.573Z,14.70
2023-04-09T13:47:16.815Z,15.18
2023-04-09T13:49:44.830Z,14.60
2023-04-09T13:52:12.996Z,13.90
2023-04-09T13:54:41.210Z,14.27
2023-04-09T13:57:10.280Z,14.45
2023-04-09T13:59:39.004Z,13.05
2023-04-09T14:02:08.244Z,14.93
2023-04-09T14:04:36.220Z,15.23
2023-04-09T14:07:04.142Z,16.02
2023-04-09T14:09:31.992Z,13.40
2023-04-09T14:11:59.739Z,13.40
2023-04-09T14:14:27.632Z,13.32
2023-04-09T14:16:55.422Z,13.52
2023-04-09T14:19:24.607Z,12.77
2023-04-09T14:21:53.270Z,14.52
2023-04-09T14:24:23.096Z,12.20
2023-04-09T14:26:53.608Z,13.85
2023-04-09T14:29:22.504Z,14.00
2023-04-09T14:31:51.743Z,12.52
2023-04-09T14:34:19.569Z,12.68
2023-04-09T14:36:48.622Z,12.23
2023-04-09T14:39:16.536Z,12.60
2023-04-09T14:41:44.341Z,12.20
2023-04-09T14:44:12.139Z,13.73
2023-04-09T14:46:39.889Z,14.70
2023-04-09T14:49:07.719Z,14.25
2023-04-09T14:51:35.553Z,12.20
2023-04-09T14:54:04.972Z,11.20
2023-04-09T14:56:32.771Z,11.15
2023-04-09T14:59:00.717Z,10.02
2023-04-09T15:01:28.722Z,10.45
2023-04-09T15:03:57.010Z,10.55
2023-04-09T15:06:24.994Z,12.32
2023-04-09T15:08:52.848Z,12.60
2023-04-09T15:11:23.073Z,11.88
2023-04-09T15:13:52.169Z,10.80
2023-04-09T15:16:23.984Z,11.05
2023-04-09T15:18:52.712Z,10.75
2023-04-09T15:21:20.730Z,10.98
2023-04-09T15:23:48.544Z,11.32
2023-04-09T15:26:17.007Z,10.27
2023-04-09T15:28:46.941Z,10.20
2023-04-09T15:31:14.714Z,10.38
2023-04-09T15:33:43.811Z,10.95
2023-04-09T15:36:11.997Z,9.68
2023-04-09T15:38:39.823Z,10.82
2023-04-09T15:41:07.650Z,9.55
2023-04-09T15:43:35.487Z,10.15
2023-04-09T15:46:10.767Z,10.63
2023-04-09T15:48:38.989Z,10.45
2023-04-09T15:51:07.264Z,10.45
2023-04-09T15:53:35.174Z,9.75
2023-04-09T15:56:03.839Z,10.50
2023-04-09T15:58:31.679Z,10.57
2023-04-09T16:00:59.634Z,10.52
2023-04-09T16:03:28.778Z,10.05
2023-04-09T16:05:56.535Z,8.85
2023-04-09T16:08:26.280Z,8.98
2023-04-09T16:10:54.070Z,10.30
2023-04-09T16:13:21.805Z,10.98
2023-04-09T16:15:51.098Z,10.43
2023-04-09T16:18:19.407Z,11.18
2023-04-09T16:20:48.736Z,10.95
2023-04-09T16:23:16.453Z,9.65
2023-04-09T16:25:44.320Z,9.20
2023-04-09T16:28:12.136Z,9.40
2023-04-09T16:30:39.894Z,9.48
2023-04-09T16:33:08.732Z,9.52
2023-04-09T16:35:39.314Z,11.30
2023-04-09T16:38:08.937Z,10.85
2023-04-09T16:40:36.728Z,9.77
2023-04-09T16:43:04.688Z,9.75
2023-04-09T16:45:32.808Z,8.50
2023-04-09T16:48:00.824Z,10.80
2023-04-09T16:50:28.718Z,12.13
2023-04-09T16:52:56.663Z,10.77
2023-04-09T16:55:26.018Z,10.52
2023-04-09T16:57:55.970Z,12.57
2023-04-09T17:00:24.236Z,14.45
2023-04-09T17:02:52.322Z,14.30
2023-04-09T17:05:20.474Z,13.10
2023-04-09T17:07:48.284Z,13.88
2023-04-09T17:10:16.219Z,14.80
2023-04-09T17:12:45.354Z,13.90
2023-04-09T17:15:13.143Z,14.20
2023-04-09T17:17:41.154Z,14.75
2023-04-09T17:20:09.841Z,14.43
2023-04-09T17:22:38.240Z,14.18
2023-04-09T17:25:06.633Z,13.90
2023-04-09T17:27:34.562Z,14.10
2023-04-09T17:30:04.294Z,13.77
2023-04-09T17:32:32.297Z,14.15
2023-04-09T17:35:00.528Z,14.02
2023-04-09T17:37:29.554Z,13.60
2023-04-09T17:39:57.302Z,13.57
2023-04-09T17:42:25.181Z,13.48
2023-04-09T17:44:53.608Z,14.23
2023-04-09T17:47:22.992Z,13.88
2023-04-09T17:49:50.774Z,13.40
2023-04-09T17:52:18.665Z,13.35
2023-04-09T17:54:46.664Z,13.50
2023-04-09T17:57:15.501Z,13.90
2023-04-09T17:59:43.479Z,14.40
2023-04-09T18:02:11.764Z,13.85
2023-04-09T18:04:41.725Z,14.07
2023-04-09T18:07:09.956Z,14.30
2023-04-09T18:09:39.108Z,14.80
2023-04-09T18:12:06.970Z,15.37
2023-04-09T18:14:34.790Z,16.43
2023-04-09T18:17:04.607Z,15.87
2023-04-09T18:19:32.476Z,16.23
2023-04-09T18:22:01.550Z,14.93
2023-04-09T18:24:30.263Z,16.57
2023-04-09T18:26:58.163Z,17.37
2023-04-09T18:29:27.496Z,17.07
2023-04-09T18:31:56.092Z,16.47
2023-04-09T18:34:24.456Z,17.03
2023-04-09T18:36:53.286Z,16.23
2023-04-09T18:39:22.887Z,16.67
2023-04-09T18:41:51.147Z,16.37
2023-04-09T18:44:19.004Z,19.00
2023-04-09T18:46:47.054Z,19.07
2023-04-09T18:49:14.818Z,18.60
2023-04-09T18:51:42.587Z,17.87
2023-04-09T18:54:10.320Z,18.10
2023-04-09T18:56:39.448Z,17.43
2023-04-09T18:59:07.214Z,16.47
2023-04-09T19:01:35.041Z,16.60
2023-04-09T19:04:03.012Z,17.57
2023-04-09T19:06:33.123Z,19.37
2023-04-09T19:09:01.227Z,18.00
2023-04-09T19:11:29.163Z,17.50
2023-04-09T19:13:58.282Z,16.77
2023-04-09T19:16:26.137Z,18.80
2023-04-09T19:18:54.130Z,18.13
2023-04-09T19:21:22.400Z,17.90
2023-04-09T19:23:50.184Z,17.50
2023-04-09T19:26:18.177Z,17.17
2023-04-09T19:28:46.017Z,19.07
2023-04-09T19:31:16.092Z,19.13
2023-04-09T19:33:44.072Z,19.30
2023-04-09T19:36:12.960Z,17.47
2023-04-09T19:38:40.815Z,18.00
2023-04-09T19:41:08.660Z,23.80
2023-04-09T19:43:38.689Z,23.13
2023-04-09T19:46:08.425Z,23.27
2023-04-09T19:48:38.262Z,21.90
2023-04-09T19:51:06.823Z,22.67
2023-04-09T19:53:36.316Z,24.60
2023-04-09T19:56:04.220Z,22.80
2023-04-09T19:58:32.754Z,23.30
2023-04-09T20:01:00.508Z,23.80
2023-04-09T20:03:28.624Z,27.33
2023-04-09T20:05:57.768Z,27.53
2023-04-09T20:08:25.558Z,27.33
2023-04-09T20:10:53.337Z,25.80
2023-04-09T20:13:21.102Z,26.70
2023-04-09T20:15:49.877Z,27.07
2023-04-09T20:18:17.618Z,28.27
2023-04-09T20:20:45.368Z,32.07
2023-04-09T20:23:14.453Z,30.10
2023-04-09T20:25:42.248Z,31.97
2023-04-09T20:28:10.012Z,30.43
2023-04-09T20:30:37.805Z,29.47
2023-04-09T20:33:05.696Z,28.17
2023-04-09T20:35:35.372Z,30.83
2023-04-09T20:38:03.209Z,29.90
2023-04-09T20:40:32.604Z,29.00
2023-04-09T20:43:00.577Z,31.27
2023-04-09T20:45:28.325Z,29.83
2023-04-09T20:47:56.246Z,28.97
2023-04-09T20:50:24.181Z,29.00
2023-04-09T20:52:51.957Z,26.27
2023-04-09T20:55:19.818Z,26.80
2023-04-09T20:57:49.199Z,28.87
2023-04-09T21:00:17.183Z,29.87
2023-04-09T21:02:45.094Z,29.70
2023-04-09T21:05:22.629Z,27.60
2023-04-09T21:07:51.668Z,26.43
2023-04-09T21:10:19.478Z,26.43
2023-04-09T21:12:48.591Z,26.57
2023-04-09T21:15:16.604Z,27.77
2023-04-09T21:17:44.446Z,27.00
2023-04-09T21:20:12.758Z,24.40
2023-04-09T21:22:40.548Z,23.07
2023-04-09T21:25:08.978Z,25.73
2023-04-09T21:27:36.784Z,25.37
2023-04-09T21:30:06.852Z,23.03
2023-04-09T21:32:34.961Z,24.03
2023-04-09T21:35:02.853Z,24.07
2023-04-09T21:37:31.973Z,25.23
2023-04-09T21:39:59.703Z,24.57
2023-04-09T21:42:27.570Z,25.60
2023-04-09T21:44:55.284Z,23.87
2023-04-09T21:47:24.588Z,24.23
2023-04-09T21:49:52.330Z,26.10
2023-04-09T21:52:20.078Z,26.60
2023-04-09T21:54:47.788Z,26.40
2023-04-09T21:57:15.919Z,29.10
2023-04-09T21:59:43.731Z,27.03
2023-04-09T22:02:11.766Z,28.53
2023-04-09T22:04:42.625Z,26.97
2023-04-09T22:07:11.347Z,26.10
2023-04-09T22:09:39.309Z,24.80
2023-04-09T22:12:07.235Z,25.83
2023-04-09T22:14:34.968Z,26.63
2023-04-09T22:17:03.159Z,26.77
2023-04-09T22:19:32.262Z,25.20
2023-04-09T22:22:01.352Z,25.13
2023-04-09T22:24:30.229Z,25.90
2023-04-09T22:26:59.155Z,25.47
2023-04-09T22:29:27.702Z,25.20
2023-04-09T22:31:55.743Z,23.67
2023-04-09T22:34:23.621Z,26.13
2023-04-09T22:36:51.529Z,25.97
2023-04-09T22:39:21.406Z,24.87
2023-04-09T22:41:49.199Z,22.10
2023-04-09T22:44:17.364Z,22.47
2023-04-09T22:46:45.224Z,22.70
2023-04-09T22:49:13.117Z,22.50
2023-04-09T22:51:41.734Z,23.43
2023-04-09T22:54:09.987Z,22.90
2023-04-09T22:56:39.660Z,24.30
2023-04-09T22:59:07.460Z,23.07
2023-04-09T23:01:35.602Z,21.97
2023-04-09T23:04:03.436Z,21.67
2023-04-09T23:06:31.962Z,23.23
2023-04-09T23:08:59.992Z,23.03
2023-04-09T23:11:28.153Z,22.33
2023-04-09T23:13:57.316Z,23.43
2023-04-09T23:16:25.099Z,21.27
2023-04-09T23:18:53.170Z,21.83
2023-04-09T23:21:21.112Z,24.57
2023-04-09T23:23:48.988Z,24.00
2023-04-09T23:26:16.771Z,24.83
2023-04-09T23:28:44.495Z,25.63
2023-04-09T23:31:13.650Z,26.10
2023-04-09T23:33:41.396Z,25.17
2023-04-09T23:36:09.793Z,24.33
2023-04-09T23:38:40.129Z,24.40
2023-04-09T23:41:08.034Z,24.87
2023-04-09T23:43:35.812Z,22.83
2023-04-09T23:46:03.563Z,23.77
2023-04-09T23:48:32.624Z,24.90
2023-04-09T23:51:00.363Z,25.43
2023-04-09T23:53:28.130Z,26.40
2023-04-09T23:55:55.905Z,26.20
2023-04-09T23:58:23.672Z,24.40
